sensor_id;sensor_type;location;lat;lon;timestamp;temperature;humidity
25440;DHT22;13365;52.208;5.488;2022-08-01T00:01:42;23.10;99.90
25440;DHT22;13365;52.208;5.488;2022-08-01T00:04:08;23.30;99.90
25440;DHT22;13365;52.208;5.488;2022-08-01T00:06:33;23.50;99.90
25440;DHT22;13365;52.208;5.488;2022-08-01T00:08:59;23.20;99.90
25440;DHT22;13365;52.208;5.488;2022-08-01T00:11:24;23.40;99.90
25440;DHT22;13365;52.208;5.488;2022-08-01T00:13:51;23.50;99.90
25440;DHT22;13365;52.208;5.488;2022-08-01T00:16:17;23.60;99.90
25440;DHT22;13365;52.208;5.488;2022-08-01T00:18:43;23.60;99.90
25440;DHT22;13365;52.208;5.488;2022-08-01T00:21:08;23.80;99.90
25440;DHT22;13365;52.208;5.488;2022-08-01T00:23:34;24.00;99.90
25440;DHT22;13365;52.208;5.488;2022-08-01T00:25:59;23.90;99.90
25440;DHT22;13365;52.208;5.488;2022-08-01T00:28:25;24.00;99.90
25440;DHT22;13365;52.208;5.488;2022-08-01T00:30:50;23.80;99.90
25440;DHT22;13365;52.208;5.488;2022-08-01T00:33:16;23.60;99.90
25440;DHT22;13365;52.208;5.488;2022-08-01T00:35:41;23.50;99.90
25440;DHT22;13365;52.208;5.488;2022-08-01T00:38:08;23.50;99.90
25440;DHT22;13365;52.208;5.488;2022-08-01T00:40:33;23.60;99.90
25440;DHT22;13365;52.208;5.488;2022-08-01T00:42:59;23.60;99.90
25440;DHT22;13365;52.208;5.488;2022-08-01T00:45:24;23.60;99.90
25440;DHT22;13365;52.208;5.488;2022-08-01T00:47:49;23.60;99.90
25440;DHT22;13365;52.208;5.488;2022-08-01T00:50:15;23.70;99.90
25440;DHT22;13365;52.208;5.488;2022-08-01T00:52:41;23.50;99.90
25440;DHT22;13365;52.208;5.488;2022-08-01T00:55:07;23.60;99.90
25440;DHT22;13365;52.208;5.488;2022-08-01T00:57:34;23.70;99.90
25440;DHT22;13365;52.208;5.488;2022-08-01T00:59:59;23.50;99.90
25440;DHT22;13365;52.208;5.488;2022-08-01T01:02:25;23.20;99.90
25440;DHT22;13365;52.208;5.488;2022-08-01T01:04:50;23.30;99.90
25440;DHT22;13365;52.208;5.488;2022-08-01T01:15:30;22.70;99.90
25440;DHT22;13365;52.208;5.488;2022-08-01T01:17:35;22.20;99.90
25440;DHT22;13365;52.208;5.488;2022-08-01T01:20:02;21.90;99.90
25440;DHT22;13365;52.208;5.488;2022-08-01T01:25:08;22.00;99.90
25440;DHT22;13365;52.208;5.488;2022-08-01T01:30:03;22.10;99.90
25440;DHT22;13365;52.208;5.488;2022-08-01T01:32:32;22.30;99.90
25440;DHT22;13365;52.208;5.488;2022-08-01T01:34:59;22.50;99.90
25440;DHT22;13365;52.208;5.488;2022-08-01T01:37:25;22.80;99.90
25440;DHT22;13365;52.208;5.488;2022-08-01T01:39:52;23.10;99.90
25440;DHT22;13365;52.208;5.488;2022-08-01T01:42:18;23.30;99.90
25440;DHT22;13365;52.208;5.488;2022-08-01T01:44:45;23.30;99.90
25440;DHT22;13365;52.208;5.488;2022-08-01T01:47:12;23.50;99.90
25440;DHT22;13365;52.208;5.488;2022-08-01T01:49:38;23.60;99.90
25440;DHT22;13365;52.208;5.488;2022-08-01T01:52:05;23.70;99.90
25440;DHT22;13365;52.208;5.488;2022-08-01T01:54:33;23.80;99.90
25440;DHT22;13365;52.208;5.488;2022-08-01T01:56:59;23.80;99.90
25440;DHT22;13365;52.208;5.488;2022-08-01T01:59:29;23.90;99.90
25440;DHT22;13365;52.208;5.488;2022-08-01T02:01:56;24.00;99.90
25440;DHT22;13365;52.208;5.488;2022-08-01T02:04:23;24.00;99.90
25440;DHT22;13365;52.208;5.488;2022-08-01T02:06:50;23.90;99.90
25440;DHT22;13365;52.208;5.488;2022-08-01T02:09:16;23.80;99.90
25440;DHT22;13365;52.208;5.488;2022-08-01T02:11:42;23.80;99.90
25440;DHT22;13365;52.208;5.488;2022-08-01T02:14:08;23.80;99.90
25440;DHT22;13365;52.208;5.488;2022-08-01T02:16:35;23.90;99.90
25440;DHT22;13365;52.208;5.488;2022-08-01T02:19:02;24.10;99.90
25440;DHT22;13365;52.208;5.488;2022-08-01T02:21:29;24.10;99.90
25440;DHT22;13365;52.208;5.488;2022-08-01T02:23:55;23.80;99.90
25440;DHT22;13365;52.208;5.488;2022-08-01T02:26:25;23.80;99.90
25440;DHT22;13365;52.208;5.488;2022-08-01T02:28:56;23.80;99.90
25440;DHT22;13365;52.208;5.488;2022-08-01T02:31:22;23.80;99.90
25440;DHT22;13365;52.208;5.488;2022-08-01T02:33:50;23.50;99.90
25440;DHT22;13365;52.208;5.488;2022-08-01T02:36:17;23.40;99.90
25440;DHT22;13365;52.208;5.488;2022-08-01T02:38:44;23.30;99.90
25440;DHT22;13365;52.208;5.488;2022-08-01T02:41:12;23.20;99.90
25440;DHT22;13365;52.208;5.488;2022-08-01T02:43:40;23.30;99.90
25440;DHT22;13365;52.208;5.488;2022-08-01T02:46:08;23.40;99.90
25440;DHT22;13365;52.208;5.488;2022-08-01T02:48:34;23.50;99.90
25440;DHT22;13365;52.208;5.488;2022-08-01T02:51:01;23.50;99.90
25440;DHT22;13365;52.208;5.488;2022-08-01T02:53:28;23.50;99.90
25440;DHT22;13365;52.208;5.488;2022-08-01T02:55:56;23.20;99.90
25440;DHT22;13365;52.208;5.488;2022-08-01T02:58:22;23.20;99.90
25440;DHT22;13365;52.208;5.488;2022-08-01T03:00:49;22.90;99.90
25440;DHT22;13365;52.208;5.488;2022-08-01T03:03:15;22.80;99.90
25440;DHT22;13365;52.208;5.488;2022-08-01T03:05:41;22.70;99.90
25440;DHT22;13365;52.208;5.488;2022-08-01T03:08:08;22.60;99.90
25440;DHT22;13365;52.208;5.488;2022-08-01T03:10:38;22.60;99.90
25440;DHT22;13365;52.208;5.488;2022-08-01T03:13:05;22.60;99.90
25440;DHT22;13365;52.208;5.488;2022-08-01T03:15:32;22.50;99.90
25440;DHT22;13365;52.208;5.488;2022-08-01T03:17:59;22.60;99.90
25440;DHT22;13365;52.208;5.488;2022-08-01T03:20:24;22.60;99.90
25440;DHT22;13365;52.208;5.488;2022-08-01T03:22:51;22.70;99.90
25440;DHT22;13365;52.208;5.488;2022-08-01T03:25:18;22.70;99.90
25440;DHT22;13365;52.208;5.488;2022-08-01T03:27:43;22.80;99.90
25440;DHT22;13365;52.208;5.488;2022-08-01T03:30:10;23.00;99.90
25440;DHT22;13365;52.208;5.488;2022-08-01T03:32:36;23.10;99.90
25440;DHT22;13365;52.208;5.488;2022-08-01T03:35:02;23.00;99.90
25440;DHT22;13365;52.208;5.488;2022-08-01T03:37:29;22.90;99.90
25440;DHT22;13365;52.208;5.488;2022-08-01T03:39:58;22.80;99.90
25440;DHT22;13365;52.208;5.488;2022-08-01T03:42:32;22.90;99.90
25440;DHT22;13365;52.208;5.488;2022-08-01T03:44:59;23.00;99.90
25440;DHT22;13365;52.208;5.488;2022-08-01T03:47:31;23.00;99.90
25440;DHT22;13365;52.208;5.488;2022-08-01T03:49:58;22.90;99.90
25440;DHT22;13365;52.208;5.488;2022-08-01T03:52:25;23.00;99.90
25440;DHT22;13365;52.208;5.488;2022-08-01T03:54:53;22.80;99.90
25440;DHT22;13365;52.208;5.488;2022-08-01T03:57:19;22.90;99.90
25440;DHT22;13365;52.208;5.488;2022-08-01T03:59:45;22.90;99.90
25440;DHT22;13365;52.208;5.488;2022-08-01T04:02:11;22.90;99.90
25440;DHT22;13365;52.208;5.488;2022-08-01T04:04:38;22.90;99.90
25440;DHT22;13365;52.208;5.488;2022-08-01T04:07:04;23.10;99.90
25440;DHT22;13365;52.208;5.488;2022-08-01T04:09:32;23.10;99.90
25440;DHT22;13365;52.208;5.488;2022-08-01T04:11:58;23.10;99.90
25440;DHT22;13365;52.208;5.488;2022-08-01T04:14:23;23.20;99.90
25440;DHT22;13365;52.208;5.488;2022-08-01T04:16:49;23.00;99.90
25440;DHT22;13365;52.208;5.488;2022-08-01T04:19:14;22.80;99.90
25440;DHT22;13365;52.208;5.488;2022-08-01T04:21:40;22.90;99.90
25440;DHT22;13365;52.208;5.488;2022-08-01T04:24:12;23.20;99.90
25440;DHT22;13365;52.208;5.488;2022-08-01T04:26:39;23.40;99.90
25440;DHT22;13365;52.208;5.488;2022-08-01T04:29:05;23.30;99.90
25440;DHT22;13365;52.208;5.488;2022-08-01T04:31:31;23.50;99.90
25440;DHT22;13365;52.208;5.488;2022-08-01T04:33:57;23.50;99.90
25440;DHT22;13365;52.208;5.488;2022-08-01T04:36:24;23.70;99.90
25440;DHT22;13365;52.208;5.488;2022-08-01T04:38:52;23.60;99.90
25440;DHT22;13365;52.208;5.488;2022-08-01T04:41:20;23.50;99.90
25440;DHT22;13365;52.208;5.488;2022-08-01T04:43:45;23.60;99.90
25440;DHT22;13365;52.208;5.488;2022-08-01T04:46:11;23.70;99.90
25440;DHT22;13365;52.208;5.488;2022-08-01T04:48:38;23.80;99.90
25440;DHT22;13365;52.208;5.488;2022-08-01T04:51:04;23.90;99.90
25440;DHT22;13365;52.208;5.488;2022-08-01T04:53:30;23.90;99.90
25440;DHT22;13365;52.208;5.488;2022-08-01T04:55:57;23.90;99.90
25440;DHT22;13365;52.208;5.488;2022-08-01T04:58:23;24.10;99.90
25440;DHT22;13365;52.208;5.488;2022-08-01T05:00:48;24.10;99.90
25440;DHT22;13365;52.208;5.488;2022-08-01T05:03:14;24.10;99.90
25440;DHT22;13365;52.208;5.488;2022-08-01T05:05:39;24.10;99.90
25440;DHT22;13365;52.208;5.488;2022-08-01T05:08:04;24.10;99.90
25440;DHT22;13365;52.208;5.488;2022-08-01T05:10:31;24.20;99.90
25440;DHT22;13365;52.208;5.488;2022-08-01T05:12:56;24.20;99.90
25440;DHT22;13365;52.208;5.488;2022-08-01T05:15:22;24.30;99.90
25440;DHT22;13365;52.208;5.488;2022-08-01T05:17:47;24.40;99.90
25440;DHT22;13365;52.208;5.488;2022-08-01T05:20:13;24.50;99.90
25440;DHT22;13365;52.208;5.488;2022-08-01T05:22:39;24.50;99.90
25440;DHT22;13365;52.208;5.488;2022-08-01T05:25:04;24.60;99.90
25440;DHT22;13365;52.208;5.488;2022-08-01T05:27:30;24.40;99.90
25440;DHT22;13365;52.208;5.488;2022-08-01T05:29:56;24.40;99.90
25440;DHT22;13365;52.208;5.488;2022-08-01T05:32:21;24.50;99.90
25440;DHT22;13365;52.208;5.488;2022-08-01T05:34:47;24.60;99.90
25440;DHT22;13365;52.208;5.488;2022-08-01T05:37:12;24.60;99.90
25440;DHT22;13365;52.208;5.488;2022-08-01T05:39:38;24.60;99.90
25440;DHT22;13365;52.208;5.488;2022-08-01T05:42:03;24.70;99.90
25440;DHT22;13365;52.208;5.488;2022-08-01T05:44:29;24.90;99.90
25440;DHT22;13365;52.208;5.488;2022-08-01T05:46:54;24.80;99.90
25440;DHT22;13365;52.208;5.488;2022-08-01T05:49:19;24.80;99.90
25440;DHT22;13365;52.208;5.488;2022-08-01T05:51:45;24.80;99.90
25440;DHT22;13365;52.208;5.488;2022-08-01T05:54:11;24.80;99.90
25440;DHT22;13365;52.208;5.488;2022-08-01T05:56:36;24.90;99.90
25440;DHT22;13365;52.208;5.488;2022-08-01T05:59:02;24.80;99.90
25440;DHT22;13365;52.208;5.488;2022-08-01T06:01:27;24.90;99.90
25440;DHT22;13365;52.208;5.488;2022-08-01T06:03:52;24.90;99.90
25440;DHT22;13365;52.208;5.488;2022-08-01T06:06:20;25.10;99.90
25440;DHT22;13365;52.208;5.488;2022-08-01T06:08:45;25.00;99.90
25440;DHT22;13365;52.208;5.488;2022-08-01T06:11:11;24.70;99.90
25440;DHT22;13365;52.208;5.488;2022-08-01T06:13:36;24.70;99.90
25440;DHT22;13365;52.208;5.488;2022-08-01T06:16:01;24.90;99.90
25440;DHT22;13365;52.208;5.488;2022-08-01T06:18:27;24.80;99.90
25440;DHT22;13365;52.208;5.488;2022-08-01T06:20:52;24.90;99.90
25440;DHT22;13365;52.208;5.488;2022-08-01T06:23:18;24.90;99.90
25440;DHT22;13365;52.208;5.488;2022-08-01T06:25:45;24.80;99.90
25440;DHT22;13365;52.208;5.488;2022-08-01T06:28:10;25.00;99.90
25440;DHT22;13365;52.208;5.488;2022-08-01T06:30:36;25.00;99.90
25440;DHT22;13365;52.208;5.488;2022-08-01T06:33:01;24.90;99.90
25440;DHT22;13365;52.208;5.488;2022-08-01T06:35:28;24.80;99.90
25440;DHT22;13365;52.208;5.488;2022-08-01T06:37:55;24.90;99.90
25440;DHT22;13365;52.208;5.488;2022-08-01T06:40:20;24.90;99.90
25440;DHT22;13365;52.208;5.488;2022-08-01T06:42:46;24.80;99.90
25440;DHT22;13365;52.208;5.488;2022-08-01T06:45:12;24.90;99.90
25440;DHT22;13365;52.208;5.488;2022-08-01T06:47:38;25.10;99.90
25440;DHT22;13365;52.208;5.488;2022-08-01T06:50:04;24.90;99.90
25440;DHT22;13365;52.208;5.488;2022-08-01T06:52:30;24.90;99.90
25440;DHT22;13365;52.208;5.488;2022-08-01T06:54:56;24.90;99.90
25440;DHT22;13365;52.208;5.488;2022-08-01T06:57:21;24.90;99.90
25440;DHT22;13365;52.208;5.488;2022-08-01T06:59:46;24.90;99.90
25440;DHT22;13365;52.208;5.488;2022-08-01T07:02:12;24.80;99.90
25440;DHT22;13365;52.208;5.488;2022-08-01T07:04:38;24.80;99.90
25440;DHT22;13365;52.208;5.488;2022-08-01T07:07:03;24.70;99.90
25440;DHT22;13365;52.208;5.488;2022-08-01T07:09:29;24.80;99.90
25440;DHT22;13365;52.208;5.488;2022-08-01T07:11:54;24.80;99.90
25440;DHT22;13365;52.208;5.488;2022-08-01T07:14:21;24.80;99.90
25440;DHT22;13365;52.208;5.488;2022-08-01T07:16:47;24.70;99.90
25440;DHT22;13365;52.208;5.488;2022-08-01T07:19:12;24.50;99.90
25440;DHT22;13365;52.208;5.488;2022-08-01T07:21:38;24.30;99.90
25440;DHT22;13365;52.208;5.488;2022-08-01T07:24:04;24.20;99.90
25440;DHT22;13365;52.208;5.488;2022-08-01T07:26:29;24.00;99.90
25440;DHT22;13365;52.208;5.488;2022-08-01T07:28:55;24.00;99.90
25440;DHT22;13365;52.208;5.488;2022-08-01T07:31:20;24.10;99.90
25440;DHT22;13365;52.208;5.488;2022-08-01T07:33:46;24.20;99.90
25440;DHT22;13365;52.208;5.488;2022-08-01T07:36:11;24.20;99.90
25440;DHT22;13365;52.208;5.488;2022-08-01T07:38:37;24.10;99.90
25440;DHT22;13365;52.208;5.488;2022-08-01T07:41:02;24.10;99.90
25440;DHT22;13365;52.208;5.488;2022-08-01T07:43:28;24.10;99.90
25440;DHT22;13365;52.208;5.488;2022-08-01T07:45:53;24.40;99.90
25440;DHT22;13365;52.208;5.488;2022-08-01T07:48:19;24.50;99.90
25440;DHT22;13365;52.208;5.488;2022-08-01T07:50:45;24.40;99.90
25440;DHT22;13365;52.208;5.488;2022-08-01T07:53:11;24.30;99.90
25440;DHT22;13365;52.208;5.488;2022-08-01T07:55:37;24.10;99.90
25440;DHT22;13365;52.208;5.488;2022-08-01T07:58:02;24.20;99.90
25440;DHT22;13365;52.208;5.488;2022-08-01T08:00:28;24.10;99.90
25440;DHT22;13365;52.208;5.488;2022-08-01T08:02:53;24.10;99.90
25440;DHT22;13365;52.208;5.488;2022-08-01T08:05:19;24.00;99.90
25440;DHT22;13365;52.208;5.488;2022-08-01T08:07:44;24.10;99.90
25440;DHT22;13365;52.208;5.488;2022-08-01T08:10:10;24.20;99.90
25440;DHT22;13365;52.208;5.488;2022-08-01T08:12:35;24.30;99.90
25440;DHT22;13365;52.208;5.488;2022-08-01T08:15:01;24.20;99.90
25440;DHT22;13365;52.208;5.488;2022-08-01T08:17:26;24.20;99.90
25440;DHT22;13365;52.208;5.488;2022-08-01T08:19:52;24.30;99.90
25440;DHT22;13365;52.208;5.488;2022-08-01T08:22:18;24.50;99.90
25440;DHT22;13365;52.208;5.488;2022-08-01T08:24:43;24.50;99.90
25440;DHT22;13365;52.208;5.488;2022-08-01T08:27:09;24.60;99.60
25440;DHT22;13365;52.208;5.488;2022-08-01T08:29:34;24.60;99.50
25440;DHT22;13365;52.208;5.488;2022-08-01T08:32:00;24.90;99.90
25440;DHT22;13365;52.208;5.488;2022-08-01T08:34:26;25.10;99.40
25440;DHT22;13365;52.208;5.488;2022-08-01T08:36:52;25.40;98.70
25440;DHT22;13365;52.208;5.488;2022-08-01T08:39:18;25.70;96.40
25440;DHT22;13365;52.208;5.488;2022-08-01T08:41:43;25.80;95.20
25440;DHT22;13365;52.208;5.488;2022-08-01T08:44:09;25.70;96.20
25440;DHT22;13365;52.208;5.488;2022-08-01T08:46:40;26.00;95.80
25440;DHT22;13365;52.208;5.488;2022-08-01T08:49:06;26.00;93.50
25440;DHT22;13365;52.208;5.488;2022-08-01T08:51:32;26.00;93.90
25440;DHT22;13365;52.208;5.488;2022-08-01T08:53:58;26.00;94.50
25440;DHT22;13365;52.208;5.488;2022-08-01T08:56:25;26.20;94.30
25440;DHT22;13365;52.208;5.488;2022-08-01T08:58:51;26.20;93.60
25440;DHT22;13365;52.208;5.488;2022-08-01T09:01:17;26.20;93.90
25440;DHT22;13365;52.208;5.488;2022-08-01T09:03:43;26.30;92.60
25440;DHT22;13365;52.208;5.488;2022-08-01T09:06:09;26.30;92.40
25440;DHT22;13365;52.208;5.488;2022-08-01T09:08:35;26.00;92.90
25440;DHT22;13365;52.208;5.488;2022-08-01T09:11:00;25.90;93.90
25440;DHT22;13365;52.208;5.488;2022-08-01T09:13:26;26.00;93.30
25440;DHT22;13365;52.208;5.488;2022-08-01T09:15:52;26.00;93.10
25440;DHT22;13365;52.208;5.488;2022-08-01T09:20:50;25.80;93.20
25440;DHT22;13365;52.208;5.488;2022-08-01T09:26:00;25.90;92.30
25440;DHT22;13365;52.208;5.488;2022-08-01T09:28:29;26.00;92.10
25440;DHT22;13365;52.208;5.488;2022-08-01T09:30:57;26.00;92.20
25440;DHT22;13365;52.208;5.488;2022-08-01T09:33:23;25.90;92.00
25440;DHT22;13365;52.208;5.488;2022-08-01T09:35:56;25.90;93.30
25440;DHT22;13365;52.208;5.488;2022-08-01T09:38:22;26.00;92.60
25440;DHT22;13365;52.208;5.488;2022-08-01T09:40:49;26.20;91.10
25440;DHT22;13365;52.208;5.488;2022-08-01T09:43:15;26.40;92.20
25440;DHT22;13365;52.208;5.488;2022-08-01T09:45:40;26.60;92.10
25440;DHT22;13365;52.208;5.488;2022-08-01T09:48:07;27.00;91.50
25440;DHT22;13365;52.208;5.488;2022-08-01T09:50:44;27.10;88.40
25440;DHT22;13365;52.208;5.488;2022-08-01T09:53:10;27.10;88.70
25440;DHT22;13365;52.208;5.488;2022-08-01T09:55:36;27.00;85.00
25440;DHT22;13365;52.208;5.488;2022-08-01T09:58:02;26.90;88.40
25440;DHT22;13365;52.208;5.488;2022-08-01T10:00:31;26.70;86.60
25440;DHT22;13365;52.208;5.488;2022-08-01T10:02:57;26.60;88.60
25440;DHT22;13365;52.208;5.488;2022-08-01T10:05:30;26.80;88.40
25440;DHT22;13365;52.208;5.488;2022-08-01T10:07:58;27.00;90.40
25440;DHT22;13365;52.208;5.488;2022-08-01T10:10:24;27.30;84.70
25440;DHT22;13365;52.208;5.488;2022-08-01T10:12:49;27.50;77.40
25440;DHT22;13365;52.208;5.488;2022-08-01T10:15:16;27.30;82.00
25440;DHT22;13365;52.208;5.488;2022-08-01T10:20:37;27.00;80.40
25440;DHT22;13365;52.208;5.488;2022-08-01T10:23:03;27.10;83.60
25440;DHT22;13365;52.208;5.488;2022-08-01T10:25:31;27.00;83.70
25440;DHT22;13365;52.208;5.488;2022-08-01T10:27:58;27.50;81.70
25440;DHT22;13365;52.208;5.488;2022-08-01T10:30:24;27.90;80.90
25440;DHT22;13365;52.208;5.488;2022-08-01T10:32:50;27.80;84.10
25440;DHT22;13365;52.208;5.488;2022-08-01T10:35:18;27.90;82.60
25440;DHT22;13365;52.208;5.488;2022-08-01T10:37:44;27.90;80.60
25440;DHT22;13365;52.208;5.488;2022-08-01T10:40:16;27.60;80.10
25440;DHT22;13365;52.208;5.488;2022-08-01T10:42:42;27.70;81.40
25440;DHT22;13365;52.208;5.488;2022-08-01T10:45:08;27.80;80.60
25440;DHT22;13365;52.208;5.488;2022-08-01T10:47:38;27.90;78.80
25440;DHT22;13365;52.208;5.488;2022-08-01T10:50:51;28.10;77.70
25440;DHT22;13365;52.208;5.488;2022-08-01T10:53:10;28.10;77.80
25440;DHT22;13365;52.208;5.488;2022-08-01T10:58:24;27.80;80.70
25440;DHT22;13365;52.208;5.488;2022-08-01T11:03:34;27.50;78.80
25440;DHT22;13365;52.208;5.488;2022-08-01T11:06:00;27.20;80.70
25440;DHT22;13365;52.208;5.488;2022-08-01T11:08:28;27.00;82.40
25440;DHT22;13365;52.208;5.488;2022-08-01T11:10:59;27.10;81.60
25440;DHT22;13365;52.208;5.488;2022-08-01T11:16:25;27.60;77.20
25440;DHT22;13365;52.208;5.488;2022-08-01T11:18:51;27.90;77.50
25440;DHT22;13365;52.208;5.488;2022-08-01T11:21:16;27.70;78.00
25440;DHT22;13365;52.208;5.488;2022-08-01T11:23:47;27.60;80.30
25440;DHT22;13365;52.208;5.488;2022-08-01T11:26:13;27.50;74.80
25440;DHT22;13365;52.208;5.488;2022-08-01T11:28:39;27.80;74.70
25440;DHT22;13365;52.208;5.488;2022-08-01T11:38:46;28.40;71.40
25440;DHT22;13365;52.208;5.488;2022-08-01T11:47:07;28.60;72.10
25440;DHT22;13365;52.208;5.488;2022-08-01T11:51:59;28.60;68.50
25440;DHT22;13365;52.208;5.488;2022-08-01T11:54:26;28.80;68.90
25440;DHT22;13365;52.208;5.488;2022-08-01T11:56:54;29.00;66.00
25440;DHT22;13365;52.208;5.488;2022-08-01T11:59:21;29.00;70.60
25440;DHT22;13365;52.208;5.488;2022-08-01T12:01:46;29.20;68.00
25440;DHT22;13365;52.208;5.488;2022-08-01T12:04:12;29.50;65.60
25440;DHT22;13365;52.208;5.488;2022-08-01T12:06:37;29.70;67.90
25440;DHT22;13365;52.208;5.488;2022-08-01T12:09:20;29.70;65.00
25440;DHT22;13365;52.208;5.488;2022-08-01T12:11:46;29.90;65.80
25440;DHT22;13365;52.208;5.488;2022-08-01T12:14:15;30.00;65.20
25440;DHT22;13365;52.208;5.488;2022-08-01T12:16:47;30.00;65.70
25440;DHT22;13365;52.208;5.488;2022-08-01T12:19:17;30.10;61.90
25440;DHT22;13365;52.208;5.488;2022-08-01T12:21:43;30.20;60.80
25440;DHT22;13365;52.208;5.488;2022-08-01T12:24:08;29.80;59.30
25440;DHT22;13365;52.208;5.488;2022-08-01T12:26:41;30.00;62.10
25440;DHT22;13365;52.208;5.488;2022-08-01T12:29:06;30.50;63.10
25440;DHT22;13365;52.208;5.488;2022-08-01T12:31:35;30.60;60.50
25440;DHT22;13365;52.208;5.488;2022-08-01T12:36:44;30.50;59.00
25440;DHT22;13365;52.208;5.488;2022-08-01T12:39:11;30.40;60.30
25440;DHT22;13365;52.208;5.488;2022-08-01T12:41:36;30.40;57.30
25440;DHT22;13365;52.208;5.488;2022-08-01T12:44:02;30.40;54.60
25440;DHT22;13365;52.208;5.488;2022-08-01T12:46:28;30.50;54.20
25440;DHT22;13365;52.208;5.488;2022-08-01T12:48:54;30.70;57.50
25440;DHT22;13365;52.208;5.488;2022-08-01T12:51:19;30.80;56.90
25440;DHT22;13365;52.208;5.488;2022-08-01T12:53:45;30.70;56.10
25440;DHT22;13365;52.208;5.488;2022-08-01T12:56:10;30.70;56.80
25440;DHT22;13365;52.208;5.488;2022-08-01T12:58:36;30.90;58.30
25440;DHT22;13365;52.208;5.488;2022-08-01T13:01:03;31.10;59.80
25440;DHT22;13365;52.208;5.488;2022-08-01T13:03:29;31.50;57.30
25440;DHT22;13365;52.208;5.488;2022-08-01T13:05:55;31.30;56.30
25440;DHT22;13365;52.208;5.488;2022-08-01T13:08:25;31.30;58.40
25440;DHT22;13365;52.208;5.488;2022-08-01T13:11:00;31.50;55.40
25440;DHT22;13365;52.208;5.488;2022-08-01T13:13:33;31.60;58.00
25440;DHT22;13365;52.208;5.488;2022-08-01T13:16:03;31.60;58.40
25440;DHT22;13365;52.208;5.488;2022-08-01T13:18:30;31.50;56.40
25440;DHT22;13365;52.208;5.488;2022-08-01T13:21:11;31.50;56.40
25440;DHT22;13365;52.208;5.488;2022-08-01T13:23:37;31.30;55.70
25440;DHT22;13365;52.208;5.488;2022-08-01T13:26:03;31.20;55.30
25440;DHT22;13365;52.208;5.488;2022-08-01T13:28:28;31.00;56.40
25440;DHT22;13365;52.208;5.488;2022-08-01T13:31:04;29.90;54.20
25440;DHT22;13365;52.208;5.488;2022-08-01T13:33:43;29.70;56.70
25440;DHT22;13365;52.208;5.488;2022-08-01T13:36:09;29.60;56.10
25440;DHT22;13365;52.208;5.488;2022-08-01T13:38:35;29.70;56.10
25440;DHT22;13365;52.208;5.488;2022-08-01T13:41:19;29.10;52.40
25440;DHT22;13365;52.208;5.488;2022-08-01T13:43:44;28.20;53.30
25440;DHT22;13365;52.208;5.488;2022-08-01T13:46:10;28.20;53.60
25440;DHT22;13365;52.208;5.488;2022-08-01T13:48:35;28.30;53.60
25440;DHT22;13365;52.208;5.488;2022-08-01T13:51:01;28.50;54.70
25440;DHT22;13365;52.208;5.488;2022-08-01T13:53:27;28.50;54.00
25440;DHT22;13365;52.208;5.488;2022-08-01T13:55:52;28.50;53.40
25440;DHT22;13365;52.208;5.488;2022-08-01T13:58:18;28.70;54.10
25440;DHT22;13365;52.208;5.488;2022-08-01T14:00:43;28.70;53.10
25440;DHT22;13365;52.208;5.488;2022-08-01T14:03:09;28.70;54.80
25440;DHT22;13365;52.208;5.488;2022-08-01T14:05:35;28.60;54.60
25440;DHT22;13365;52.208;5.488;2022-08-01T14:08:01;28.50;55.60
25440;DHT22;13365;52.208;5.488;2022-08-01T14:10:27;28.60;55.00
25440;DHT22;13365;52.208;5.488;2022-08-01T14:12:52;28.60;54.90
25440;DHT22;13365;52.208;5.488;2022-08-01T14:15:18;28.60;53.00
25440;DHT22;13365;52.208;5.488;2022-08-01T14:17:43;28.50;53.90
25440;DHT22;13365;52.208;5.488;2022-08-01T14:20:09;28.40;52.50
25440;DHT22;13365;52.208;5.488;2022-08-01T14:22:35;27.40;54.80
25440;DHT22;13365;52.208;5.488;2022-08-01T14:25:01;26.70;56.60
25440;DHT22;13365;52.208;5.488;2022-08-01T14:27:26;26.10;55.30
25440;DHT22;13365;52.208;5.488;2022-08-01T14:29:54;26.40;55.50
25440;DHT22;13365;52.208;5.488;2022-08-01T14:32:19;26.30;56.80
25440;DHT22;13365;52.208;5.488;2022-08-01T14:34:44;26.10;56.10
25440;DHT22;13365;52.208;5.488;2022-08-01T14:37:10;25.90;55.20
25440;DHT22;13365;52.208;5.488;2022-08-01T14:39:35;25.80;56.40
25440;DHT22;13365;52.208;5.488;2022-08-01T14:42:01;25.70;57.70
25440;DHT22;13365;52.208;5.488;2022-08-01T14:44:26;25.80;55.60
25440;DHT22;13365;52.208;5.488;2022-08-01T14:46:52;25.90;57.00
25440;DHT22;13365;52.208;5.488;2022-08-01T14:49:17;26.40;57.50
25440;DHT22;13365;52.208;5.488;2022-08-01T14:51:43;26.80;58.30
25440;DHT22;13365;52.208;5.488;2022-08-01T14:54:08;28.00;56.20
25440;DHT22;13365;52.208;5.488;2022-08-01T14:56:34;28.70;51.90
25440;DHT22;13365;52.208;5.488;2022-08-01T14:58:59;28.80;51.70
25440;DHT22;13365;52.208;5.488;2022-08-01T15:01:25;29.30;51.90
25440;DHT22;13365;52.208;5.488;2022-08-01T15:03:50;29.90;49.00
25440;DHT22;13365;52.208;5.488;2022-08-01T15:06:16;30.40;47.20
25440;DHT22;13365;52.208;5.488;2022-08-01T15:08:42;31.00;48.40
25440;DHT22;13365;52.208;5.488;2022-08-01T15:11:08;31.60;46.90
25440;DHT22;13365;52.208;5.488;2022-08-01T15:13:33;32.40;47.20
25440;DHT22;13365;52.208;5.488;2022-08-01T15:15:59;32.80;46.20
25440;DHT22;13365;52.208;5.488;2022-08-01T15:18:24;33.00;44.00
25440;DHT22;13365;52.208;5.488;2022-08-01T15:20:50;33.00;45.50
25440;DHT22;13365;52.208;5.488;2022-08-01T15:23:15;33.40;46.00
25440;DHT22;13365;52.208;5.488;2022-08-01T15:25:41;33.60;42.70
25440;DHT22;13365;52.208;5.488;2022-08-01T15:28:07;34.00;44.30
25440;DHT22;13365;52.208;5.488;2022-08-01T15:30:33;34.40;43.50
25440;DHT22;13365;52.208;5.488;2022-08-01T15:32:59;34.10;42.20
25440;DHT22;13365;52.208;5.488;2022-08-01T15:35:25;34.00;44.70
25440;DHT22;13365;52.208;5.488;2022-08-01T15:37:50;34.40;43.50
25440;DHT22;13365;52.208;5.488;2022-08-01T15:40:16;34.10;43.90
25440;DHT22;13365;52.208;5.488;2022-08-01T15:42:41;33.00;44.40
25440;DHT22;13365;52.208;5.488;2022-08-01T15:45:07;32.10;45.00
25440;DHT22;13365;52.208;5.488;2022-08-01T15:47:32;31.70;47.60
25440;DHT22;13365;52.208;5.488;2022-08-01T15:49:58;31.80;48.20
25440;DHT22;13365;52.208;5.488;2022-08-01T15:52:26;31.50;46.20
25440;DHT22;13365;52.208;5.488;2022-08-01T15:54:51;31.70;47.30
25440;DHT22;13365;52.208;5.488;2022-08-01T15:57:17;31.80;48.60
25440;DHT22;13365;52.208;5.488;2022-08-01T15:59:43;31.90;49.00
25440;DHT22;13365;52.208;5.488;2022-08-01T16:02:08;31.40;48.70
25440;DHT22;13365;52.208;5.488;2022-08-01T16:04:33;31.60;50.20
25440;DHT22;13365;52.208;5.488;2022-08-01T16:06:59;31.40;47.90
25440;DHT22;13365;52.208;5.488;2022-08-01T16:09:25;31.10;48.80
25440;DHT22;13365;52.208;5.488;2022-08-01T16:11:50;31.00;49.40
25440;DHT22;13365;52.208;5.488;2022-08-01T16:14:16;30.90;49.20